createdAt,value
2017-07-24T00:00:53.484Z,1015.40
2017-07-24T00:01:55.364Z,1015.39
2017-07-24T00:02:57.236Z,1015.39
2017-07-24T00:03:59.126Z,1015.37
2017-07-24T00:05:00.930Z,1015.36
2017-07-24T00:06:02.757Z,1015.29
2017-07-24T00:07:04.644Z,1015.29
2017-07-24T00:08:06.513Z,1015.22
2017-07-24T00:09:08.399Z,1015.20
2017-07-24T00:10:22.540Z,1015.19
2017-07-24T00:11:24.410Z,1015.22
2017-07-24T00:12:26.301Z,1015.24
2017-07-24T00:13:28.167Z,1015.28
2017-07-24T00:14:29.991Z,1015.26
2017-07-24T00:15:31.802Z,1015.27
2017-07-24T00:16:33.693Z,1015.23
2017-07-24T00:17:35.579Z,1015.25
2017-07-24T00:18:37.471Z,1015.27
2017-07-24T00:19:51.616Z,1015.24
2017-07-24T00:20:53.504Z,1015.23
2017-07-24T00:21:55.370Z,1015.25
2017-07-24T00:22:57.255Z,1015.26
2017-07-24T00:23:59.061Z,1015.25
2017-07-24T00:25:00.888Z,1015.21
2017-07-24T00:26:02.750Z,1015.18
2017-07-24T00:27:04.616Z,1015.18
2017-07-24T00:28:06.485Z,1015.16
2017-07-24T00:29:20.654Z,1015.12
2017-07-24T00:30:22.537Z,1015.12
2017-07-24T00:31:24.407Z,1015.07
2017-07-24T00:32:26.294Z,1015.07
2017-07-24T00:33:28.108Z,1015.06
2017-07-24T00:34:29.925Z,1015.06
2017-07-24T00:35:31.788Z,1015.03
2017-07-24T00:36:33.661Z,1014.98
2017-07-24T00:37:35.552Z,1015.02
2017-07-24T00:38:49.767Z,1014.97
2017-07-24T00:39:51.650Z,1014.98
2017-07-24T00:40:53.521Z,1015.01
2017-07-24T00:41:55.385Z,1015.00
2017-07-24T00:42:57.190Z,1014.98
2017-07-24T00:43:58.995Z,1014.99
2017-07-24T00:45:00.875Z,1015.00
2017-07-24T00:46:02.741Z,1015.01
2017-07-24T00:47:04.611Z,1015.03
2017-07-24T00:48:18.825Z,1014.99
2017-07-24T00:49:20.684Z,1014.96
2017-07-24T00:50:22.546Z,1014.98
2017-07-24T00:51:24.413Z,1014.99
2017-07-24T00:52:26.219Z,1014.93
2017-07-24T00:53:28.050Z,1014.93
2017-07-24T00:54:29.941Z,1014.92
2017-07-24T00:55:31.802Z,1014.92
2017-07-24T00:56:33.693Z,1014.94
2017-07-24T00:57:47.903Z,1014.94
2017-07-24T00:58:49.765Z,1014.94
2017-07-24T00:59:51.634Z,1014.95
2017-07-24T01:00:53.499Z,1014.92
2017-07-24T01:01:55.305Z,1014.87
2017-07-24T01:02:57.138Z,1014.89
2017-07-24T01:03:59.034Z,1014.85
2017-07-24T01:05:00.920Z,1014.84
2017-07-24T01:06:02.808Z,1014.86
2017-07-24T01:07:16.953Z,1014.87
2017-07-24T01:08:18.845Z,1014.81
2017-07-24T01:09:20.733Z,1014.83
2017-07-24T01:10:22.620Z,1014.85
2017-07-24T01:11:24.428Z,1014.83
2017-07-24T01:12:26.236Z,1014.85
2017-07-24T01:13:28.119Z,1014.86
2017-07-24T01:14:29.989Z,1014.82
2017-07-24T01:15:31.880Z,1014.82
2017-07-24T01:16:46.041Z,1014.80
2017-07-24T01:17:47.913Z,1014.79
2017-07-24T01:18:49.780Z,1014.80
2017-07-24T01:19:51.668Z,1014.80
2017-07-24T01:20:53.497Z,1014.76
2017-07-24T01:21:55.326Z,1014.74
2017-07-24T01:22:57.191Z,1014.73
2017-07-24T01:23:59.057Z,1014.77
2017-07-24T01:25:00.934Z,1014.74
2017-07-24T01:26:15.096Z,1014.77
2017-07-24T01:27:16.962Z,1014.73
2017-07-24T01:28:18.829Z,1014.72
2017-07-24T01:29:20.692Z,1014.69
2017-07-24T01:30:22.502Z,1014.66
2017-07-24T01:31:24.341Z,1014.63
2017-07-24T01:32:26.227Z,1014.65
2017-07-24T01:33:28.088Z,1014.65
2017-07-24T01:34:29.957Z,1014.61
2017-07-24T01:35:44.099Z,1014.61
2017-07-24T01:36:45.985Z,1014.56
2017-07-24T01:37:47.884Z,1014.60
2017-07-24T01:38:49.767Z,1014.59
2017-07-24T01:39:51.571Z,1014.59
2017-07-24T01:40:53.378Z,1014.57
2017-07-24T01:41:55.268Z,1014.57
2017-07-24T01:42:57.155Z,1014.55
2017-07-24T01:44:05.295Z,1014.55
2017-07-24T01:45:19.438Z,1014.57
2017-07-24T01:46:21.307Z,1014.58
2017-07-24T01:47:23.177Z,1014.53
2017-07-24T01:48:25.066Z,1014.50
2017-07-24T01:49:26.879Z,1014.50
2017-07-24T01:50:28.711Z,1014.49
2017-07-24T01:51:30.578Z,1014.51
2017-07-24T01:52:32.463Z,1014.51
2017-07-24T01:53:34.329Z,1014.48
2017-07-24T01:54:48.478Z,1014.47
2017-07-24T01:55:50.368Z,1014.47
2017-07-24T01:56:52.258Z,1014.46
2017-07-24T01:57:54.131Z,1014.46
2017-07-24T01:58:55.962Z,1014.44
2017-07-24T01:59:57.766Z,1014.45
2017-07-24T02:00:59.640Z,1014.45
2017-07-24T02:02:01.530Z,1014.42
2017-07-24T02:03:03.400Z,1014.39
2017-07-24T02:04:17.568Z,1014.42
2017-07-24T02:05:19.434Z,1014.46
2017-07-24T02:06:21.307Z,1014.40
2017-07-24T02:07:23.175Z,1014.37
2017-07-24T02:08:25.001Z,1014.32
2017-07-24T02:09:26.815Z,1014.35
2017-07-24T02:10:28.707Z,1014.38
2017-07-24T02:11:30.573Z,1014.38
2017-07-24T02:12:32.440Z,1014.37
2017-07-24T02:13:46.609Z,1014.41
2017-07-24T02:14:48.495Z,1014.38
2017-07-24T02:15:50.364Z,1014.43
2017-07-24T02:16:52.232Z,1014.47
2017-07-24T02:17:54.043Z,1014.44
2017-07-24T02:18:55.851Z,1014.41
2017-07-24T02:19:57.717Z,1014.45
2017-07-24T02:20:59.589Z,1014.45
2017-07-24T02:22:01.450Z,1014.46
2017-07-24T02:23:15.597Z,1014.47
2017-07-24T02:24:17.490Z,1014.43
2017-07-24T02:25:19.379Z,1014.44
2017-07-24T02:26:21.265Z,1014.42
2017-07-24T02:27:23.082Z,1014.41
2017-07-24T02:28:24.908Z,1014.46
2017-07-24T02:29:26.777Z,1014.42
2017-07-24T02:30:28.645Z,1014.40
2017-07-24T02:31:30.533Z,1014.44
2017-07-24T02:32:44.680Z,1014.41
2017-07-24T02:33:46.599Z,1014.42
2017-07-24T02:34:48.490Z,1014.36
2017-07-24T02:35:50.381Z,1014.34
2017-07-24T02:36:52.213Z,1014.30
2017-07-24T02:37:54.046Z,1014.29
2017-07-24T02:38:55.934Z,1014.28
2017-07-24T02:39:57.804Z,1014.33
2017-07-24T02:40:59.667Z,1014.28
2017-07-24T02:42:13.866Z,1014.29
2017-07-24T02:43:15.733Z,1014.25
2017-07-24T02:44:17.623Z,1014.28
2017-07-24T02:45:19.524Z,1014.27
2017-07-24T02:46:21.361Z,1014.26
2017-07-24T02:47:23.188Z,1014.28
2017-07-24T02:48:25.081Z,1014.27
2017-07-24T02:49:26.926Z,1014.25
2017-07-24T02:50:28.791Z,1014.24
2017-07-24T02:51:42.937Z,1014.22
2017-07-24T02:52:44.824Z,1014.22
2017-07-24T02:53:46.698Z,1014.19
2017-07-24T02:54:48.569Z,1014.19
2017-07-24T02:55:50.404Z,1014.10
2017-07-24T02:56:52.240Z,1014.11
2017-07-24T02:57:54.129Z,1014.12
2017-07-24T02:58:56.003Z,1014.04
2017-07-24T02:59:57.895Z,1014.10
2017-07-24T03:01:12.061Z,1014.04
2017-07-24T03:02:13.932Z,1014.07
2017-07-24T03:03:15.831Z,1014.05
2017-07-24T03:04:17.716Z,1014.02
2017-07-24T03:05:19.542Z,1014.02
2017-07-24T03:06:21.362Z,1014.03
2017-07-24T03:07:23.231Z,1014.01
2017-07-24T03:08:25.126Z,1013.98
2017-07-24T03:09:26.994Z,1013.98
2017-07-24T03:10:41.165Z,1013.97
2017-07-24T03:11:43.055Z,1013.97
2017-07-24T03:12:44.921Z,1013.94
2017-07-24T03:13:46.791Z,1013.94
2017-07-24T03:14:48.607Z,1013.88
2017-07-24T03:15:50.438Z,1013.84
2017-07-24T03:16:52.315Z,1013.86
2017-07-24T03:17:54.209Z,1013.88
2017-07-24T03:18:56.108Z,1013.85
2017-07-24T03:20:10.274Z,1013.85
2017-07-24T03:21:12.143Z,1013.84
2017-07-24T03:22:14.010Z,1013.86
2017-07-24T03:23:15.879Z,1013.85
2017-07-24T03:24:17.715Z,1013.85
2017-07-24T03:25:19.547Z,1013.82
2017-07-24T03:26:21.424Z,1013.81
2017-07-24T03:27:23.300Z,1013.72
2017-07-24T03:28:25.185Z,1013.75
2017-07-24T03:29:39.336Z,1013.71
2017-07-24T03:30:41.205Z,1013.73
2017-07-24T03:31:43.078Z,1013.73
2017-07-24T03:32:44.971Z,1013.72
2017-07-24T03:33:46.805Z,1013.75
2017-07-24T03:34:48.618Z,1013.71
2017-07-24T03:35:50.509Z,1013.73
2017-07-24T03:36:52.382Z,1013.72
2017-07-24T03:37:54.260Z,1013.74
2017-07-24T03:39:08.437Z,1013.75
2017-07-24T03:40:10.326Z,1013.74
2017-07-24T03:41:12.197Z,1013.73
2017-07-24T03:42:14.073Z,1013.75
2017-07-24T03:43:15.882Z,1013.73
2017-07-24T03:44:17.698Z,1013.76
2017-07-24T03:45:19.591Z,1013.69
2017-07-24T03:46:21.465Z,1013.65
2017-07-24T03:47:23.329Z,1013.63
2017-07-24T03:48:37.477Z,1013.63
2017-07-24T03:49:39.345Z,1013.64
2017-07-24T03:50:41.216Z,1013.70
2017-07-24T03:51:43.089Z,1013.69
2017-07-24T03:52:44.928Z,1013.69
2017-07-24T03:53:46.761Z,1013.70
2017-07-24T03:54:48.636Z,1013.69
2017-07-24T03:55:50.512Z,1013.69
2017-07-24T03:56:52.401Z,1013.69
2017-07-24T03:58:06.555Z,1013.71
2017-07-24T03:59:08.448Z,1013.68
2017-07-24T04:00:10.341Z,1013.71
2017-07-24T04:01:12.214Z,1013.73
2017-07-24T04:02:14.030Z,1013.70
2017-07-24T04:03:15.868Z,1013.65
2017-07-24T04:04:17.763Z,1013.68
2017-07-24T04:05:19.659Z,1013.63
2017-07-24T04:06:21.531Z,1013.64
2017-07-24T04:07:35.706Z,1013.66
2017-07-24T04:08:37.600Z,1013.65
2017-07-24T04:09:39.473Z,1013.64
2017-07-24T04:10:41.352Z,1013.67
2017-07-24T04:11:43.189Z,1013.68
2017-07-24T04:12:45.027Z,1013.70
2017-07-24T04:13:46.927Z,1013.67
2017-07-24T04:14:48.779Z,1013.68
2017-07-24T04:15:50.592Z,1013.63
2017-07-24T04:17:04.735Z,1013.61
2017-07-24T04:18:06.609Z,1013.57
2017-07-24T04:19:08.509Z,1013.57
2017-07-24T04:20:10.413Z,1013.55
2017-07-24T04:21:12.219Z,1013.59
2017-07-24T04:22:14.026Z,1013.57
2017-07-24T04:23:15.898Z,1013.61
2017-07-24T04:24:17.773Z,1013.57
2017-07-24T04:25:19.665Z,1013.53
2017-07-24T04:26:33.821Z,1013.56
2017-07-24T04:27:35.694Z,1013.50
2017-07-24T04:28:37.589Z,1013.49
2017-07-24T04:29:39.468Z,1013.45
2017-07-24T04:30:41.307Z,1013.47
2017-07-24T04:31:43.126Z,1013.44
2017-07-24T04:32:44.991Z,1013.43
2017-07-24T04:33:46.864Z,1013.43
2017-07-24T04:34:48.738Z,1013.40
2017-07-24T04:36:02.923Z,1013.41
2017-07-24T04:37:04.812Z,1013.46
2017-07-24T04:38:06.685Z,1013.53
2017-07-24T04:39:08.561Z,1013.59
2017-07-24T04:40:10.386Z,1013.57
2017-07-24T04:41:12.216Z,1013.58
2017-07-24T04:42:14.092Z,1013.57
2017-07-24T04:43:15.965Z,1013.55
2017-07-24T04:44:17.839Z,1013.58
2017-07-24T04:45:32.017Z,1013.57
2017-07-24T04:46:33.888Z,1013.55
2017-07-24T04:47:35.761Z,1013.56
2017-07-24T04:48:37.639Z,1013.58
2017-07-24T04:49:39.485Z,1013.59
2017-07-24T04:50:41.327Z,1013.60
2017-07-24T04:51:43.229Z,1013.58
2017-07-24T04:52:45.132Z,1013.56
2017-07-24T04:53:47.021Z,1013.57
2017-07-24T04:55:01.178Z,1013.62
2017-07-24T04:56:03.050Z,1013.69
2017-07-24T04:57:04.931Z,1013.76
2017-07-24T04:58:06.833Z,1013.76
2017-07-24T04:59:08.667Z,1013.75
2017-07-24T05:00:10.487Z,1013.65
2017-07-24T05:01:12.370Z,1013.68
2017-07-24T05:02:14.273Z,1013.60
2017-07-24T05:03:16.169Z,1013.60
2017-07-24T05:04:30.325Z,1013.57
2017-07-24T05:05:32.233Z,1013.62
2017-07-24T05:06:34.106Z,1013.68
2017-07-24T05:07:36.013Z,1013.72
2017-07-24T05:08:37.826Z,1013.66
2017-07-24T05:09:39.651Z,1013.68
2017-07-24T05:10:41.545Z,1013.59
2017-07-24T05:11:43.421Z,1013.57
2017-07-24T05:12:45.302Z,1013.54
2017-07-24T05:13:59.455Z,1013.52
2017-07-24T05:15:01.329Z,1013.48
2017-07-24T05:16:03.231Z,1013.49
2017-07-24T05:17:05.133Z,1013.51
2017-07-24T05:18:06.978Z,1013.51
2017-07-24T05:19:08.817Z,1013.48
2017-07-24T05:20:10.701Z,1013.55
2017-07-24T05:21:12.603Z,1013.51
2017-07-24T05:22:14.498Z,1013.53
2017-07-24T05:23:28.646Z,1013.50
2017-07-24T05:24:30.559Z,1013.54
2017-07-24T05:25:32.458Z,1013.56
2017-07-24T05:26:34.361Z,1013.51
2017-07-24T05:27:36.204Z,1013.56
2017-07-24T05:28:38.047Z,1013.57
2017-07-24T05:29:39.912Z,1013.56
2017-07-24T05:30:41.752Z,1013.55
2017-07-24T05:31:43.593Z,1013.52
2017-07-24T05:32:57.810Z,1013.51
2017-07-24T05:33:59.688Z,1013.52
2017-07-24T05:35:01.591Z,1013.51
2017-07-24T05:36:03.467Z,1013.51
2017-07-24T05:37:05.279Z,1013.47
2017-07-24T05:38:07.097Z,1013.46
2017-07-24T05:39:08.995Z,1013.42
2017-07-24T05:40:10.870Z,1013.39
2017-07-24T05:41:12.749Z,1013.40
2017-07-24T05:42:26.932Z,1013.39
2017-07-24T05:43:28.825Z,1013.42
2017-07-24T05:44:30.721Z,1013.41
2017-07-24T05:45:32.605Z,1013.46
2017-07-24T05:46:34.446Z,1013.46
2017-07-24T05:47:36.286Z,1013.49
2017-07-24T05:48:38.160Z,1013.49
2017-07-24T05:49:40.045Z,1013.49
2017-07-24T05:50:41.941Z,1013.41
2017-07-24T05:51:56.114Z,1013.40
2017-07-24T05:52:57.987Z,1013.42
2017-07-24T05:53:59.865Z,1013.43
2017-07-24T05:55:01.743Z,1013.41
2017-07-24T05:56:03.585Z,1013.40
2017-07-24T05:57:05.430Z,1013.36
2017-07-24T05:58:07.332Z,1013.34
2017-07-24T05:59:09.233Z,1013.35
2017-07-24T06:00:11.107Z,1013.28
2017-07-24T06:01:25.259Z,1013.28
2017-07-24T06:02:27.157Z,1013.25
2017-07-24T06:03:29.059Z,1013.27
2017-07-24T06:04:30.930Z,1013.25
2017-07-24T06:05:32.775Z,1013.25
2017-07-24T06:06:34.614Z,1013.23
2017-07-24T06:07:36.511Z,1013.21
2017-07-24T06:08:38.393Z,1013.17
2017-07-24T06:09:40.292Z,1013.11
2017-07-24T06:10:54.467Z,1013.11
2017-07-24T06:11:56.343Z,1013.11
2017-07-24T06:12:58.240Z,1013.15
2017-07-24T06:14:00.116Z,1013.12
2017-07-24T06:15:01.932Z,1013.13
2017-07-24T06:16:03.750Z,1013.12
2017-07-24T06:17:05.652Z,1013.08
2017-07-24T06:18:07.553Z,1013.10
2017-07-24T06:19:09.450Z,1013.11
2017-07-24T06:20:23.660Z,1013.12
2017-07-24T06:21:25.559Z,1013.14
2017-07-24T06:22:27.432Z,1013.13
2017-07-24T06:23:29.329Z,1013.14
2017-07-24T06:24:31.144Z,1013.06
2017-07-24T06:25:32.963Z,1013.08
2017-07-24T06:26:34.842Z,1013.10
2017-07-24T06:27:36.738Z,1013.07
2017-07-24T06:28:38.575Z,1013.10
2017-07-24T06:29:52.731Z,1013.08
2017-07-24T06:30:54.629Z,1013.10
2017-07-24T06:31:56.526Z,1013.13
2017-07-24T06:32:58.412Z,1013.16
2017-07-24T06:34:00.251Z,1013.13
2017-07-24T06:35:02.091Z,1013.10
2017-07-24T06:36:03.973Z,1013.11
2017-07-24T06:37:05.871Z,1013.15
2017-07-24T06:38:07.769Z,1013.18
2017-07-24T06:39:21.920Z,1013.23
2017-07-24T06:40:23.799Z,1013.22
2017-07-24T06:41:25.704Z,1013.21
2017-07-24T06:42:27.603Z,1013.19
2017-07-24T06:43:29.418Z,1013.17
2017-07-24T06:44:31.238Z,1013.21
2017-07-24T06:45:33.151Z,1013.19
2017-07-24T06:46:35.015Z,1013.19
2017-07-24T06:47:36.909Z,1013.24
2017-07-24T06:48:51.092Z,1013.17
2017-07-24T06:49:52.990Z,1013.20
2017-07-24T06:50:54.895Z,1013.22
2017-07-24T06:51:56.791Z,1013.20
2017-07-24T06:52:58.616Z,1013.20
2017-07-24T06:54:00.452Z,1013.23
2017-07-24T06:55:02.334Z,1013.23
2017-07-24T06:56:04.211Z,1013.23
2017-07-24T06:57:06.112Z,1013.14
2017-07-24T06:58:20.293Z,1013.16
2017-07-24T06:59:22.191Z,1013.11
2017-07-24T07:00:24.088Z,1013.08
2017-07-24T07:01:25.974Z,1013.06
2017-07-24T07:02:27.789Z,1013.04
2017-07-24T07:03:29.660Z,1013.03
2017-07-24T07:04:31.540Z,1013.03
2017-07-24T07:05:33.410Z,1013.04
2017-07-24T07:06:35.308Z,1013.07
2017-07-24T07:07:49.464Z,1013.09
2017-07-24T07:08:51.335Z,1013.10
2017-07-24T07:09:53.214Z,1013.11
2017-07-24T07:10:55.095Z,1013.12
2017-07-24T07:11:56.934Z,1013.12
2017-07-24T07:12:58.752Z,1013.13
2017-07-24T07:14:00.719Z,1013.13
2017-07-24T07:15:02.616Z,1013.13
2017-07-24T07:16:04.495Z,1013.14
2017-07-24T07:17:19.067Z,1013.15
2017-07-24T07:18:20.914Z,1013.13
2017-07-24T07:19:22.788Z,1013.11
2017-07-24T07:20:24.669Z,1013.06
2017-07-24T07:21:26.486Z,1013.05
2017-07-24T07:22:28.308Z,1013.01
2017-07-24T07:23:30.209Z,1013.00
2017-07-24T07:24:32.050Z,1012.96
2017-07-24T07:25:33.889Z,1012.94
2017-07-24T07:26:48.094Z,1012.89
2017-07-24T07:27:49.966Z,1012.84
2017-07-24T07:28:51.873Z,1012.83
2017-07-24T07:29:53.764Z,1012.84
2017-07-24T07:30:55.589Z,1012.82
2017-07-24T07:31:57.434Z,1012.83
2017-07-24T07:32:59.314Z,1012.84
2017-07-24T07:34:01.213Z,1012.89
2017-07-24T07:35:03.089Z,1012.87
2017-07-24T07:36:17.247Z,1012.83
2017-07-24T07:37:19.149Z,1012.85
2017-07-24T07:38:21.051Z,1012.90
2017-07-24T07:39:22.957Z,1012.86
2017-07-24T07:40:24.804Z,1012.86
2017-07-24T07:41:26.648Z,1012.84
2017-07-24T07:42:28.514Z,1012.81
2017-07-24T07:43:30.430Z,1012.85
2017-07-24T07:44:32.244Z,1012.82
2017-07-24T07:45:46.497Z,1012.87
2017-07-24T07:46:48.360Z,1012.85
2017-07-24T07:47:50.262Z,1012.84
2017-07-24T07:48:52.166Z,1012.84
2017-07-24T07:49:54.011Z,1012.79
2017-07-24T07:50:55.854Z,1012.82
2017-07-24T07:51:57.760Z,1012.83
2017-07-24T07:52:59.661Z,1012.82
2017-07-24T07:54:01.540Z,1012.82
2017-07-24T07:55:15.728Z,1012.77
2017-07-24T07:56:17.623Z,1012.73
2017-07-24T07:57:19.525Z,1012.75
2017-07-24T07:58:21.408Z,1012.70
2017-07-24T07:59:23.250Z,1012.72
2017-07-24T08:00:25.120Z,1012.68
2017-07-24T08:01:26.975Z,1012.71
2017-07-24T08:02:28.854Z,1012.74
2017-07-24T08:03:30.728Z,1012.72
2017-07-24T08:04:44.886Z,1012.74
2017-07-24T08:05:46.785Z,1012.72
2017-07-24T08:06:48.648Z,1012.73
2017-07-24T08:07:50.571Z,1012.71
2017-07-24T08:08:52.420Z,1012.65
2017-07-24T08:09:54.244Z,1012.66
2017-07-24T08:10:56.113Z,1012.63
2017-07-24T08:11:57.991Z,1012.69
2017-07-24T08:12:59.953Z,1012.72
2017-07-24T08:14:14.137Z,1012.66
2017-07-24T08:15:16.010Z,1012.67
2017-07-24T08:16:17.890Z,1012.64
2017-07-24T08:17:19.791Z,1012.66
2017-07-24T08:18:21.611Z,1012.67
2017-07-24T08:19:23.548Z,1012.63
2017-07-24T08:20:25.481Z,1012.57
2017-07-24T08:21:27.389Z,1012.53
2017-07-24T08:22:29.258Z,1012.57
2017-07-24T08:23:43.417Z,1012.56
2017-07-24T08:24:45.338Z,1012.59
2017-07-24T08:25:47.236Z,1012.60
2017-07-24T08:26:49.112Z,1012.64
2017-07-24T08:27:50.950Z,1012.61
2017-07-24T08:28:52.782Z,1012.63
2017-07-24T08:29:54.682Z,1012.67
2017-07-24T08:30:56.560Z,1012.68
2017-07-24T08:31:58.459Z,1012.70
2017-07-24T08:33:12.619Z,1012.71
2017-07-24T08:34:14.511Z,1012.68
2017-07-24T08:35:16.399Z,1012.67
2017-07-24T08:36:18.277Z,1012.64
2017-07-24T08:37:20.126Z,1012.59
2017-07-24T08:38:21.972Z,1012.61
2017-07-24T08:39:23.831Z,1012.60
2017-07-24T08:40:25.658Z,1012.58
2017-07-24T08:41:27.509Z,1012.57
2017-07-24T08:42:41.668Z,1012.56
2017-07-24T08:43:43.544Z,1012.55
2017-07-24T08:44:45.421Z,1012.57
2017-07-24T08:45:47.302Z,1012.61
2017-07-24T08:46:49.150Z,1012.62
2017-07-24T08:47:51.005Z,1012.62
2017-07-24T08:48:52.884Z,1012.62
2017-07-24T08:49:54.769Z,1012.61
2017-07-24T08:50:56.678Z,1012.62
2017-07-24T08:52:10.841Z,1012.61
2017-07-24T08:53:12.663Z,1012.60
2017-07-24T08:54:14.528Z,1012.65
2017-07-24T08:55:16.433Z,1012.69
2017-07-24T08:56:18.315Z,1012.71
2017-07-24T08:57:20.190Z,1012.70
2017-07-24T08:58:22.009Z,1012.70
2017-07-24T08:59:23.853Z,1012.66
2017-07-24T09:00:25.732Z,1012.60
2017-07-24T09:01:39.958Z,1012.57
2017-07-24T09:02:41.858Z,1012.59
2017-07-24T09:03:43.763Z,1012.59
2017-07-24T09:04:45.669Z,1012.60
2017-07-24T09:05:47.491Z,1012.59
2017-07-24T09:06:49.334Z,1012.51
2017-07-24T09:07:51.239Z,1012.54
2017-07-24T09:08:53.146Z,1012.49
2017-07-24T09:09:55.047Z,1012.43
2017-07-24T09:11:09.228Z,1012.43
2017-07-24T09:12:11.106Z,1012.45
2017-07-24T09:13:13.014Z,1012.42
2017-07-24T09:14:14.893Z,1012.45
2017-07-24T09:15:16.713Z,1012.44
2017-07-24T09:16:18.564Z,1012.42
2017-07-24T09:17:20.464Z,1012.43
2017-07-24T09:18:22.359Z,1012.43
2017-07-24T09:19:24.242Z,1012.41
2017-07-24T09:20:38.414Z,1012.40
2017-07-24T09:21:40.311Z,1012.40
2017-07-24T09:22:42.191Z,1012.40
2017-07-24T09:23:44.100Z,1012.40
2017-07-24T09:24:45.947Z,1012.36
2017-07-24T09:25:47.790Z,1012.36
2017-07-24T09:26:49.665Z,1012.37
2017-07-24T09:27:51.553Z,1012.27
2017-07-24T09:28:53.456Z,1012.28
2017-07-24T09:30:07.644Z,1012.30
2017-07-24T09:31:09.547Z,1012.26
2017-07-24T09:32:11.450Z,1012.28
2017-07-24T09:33:13.355Z,1012.28
2017-07-24T09:34:15.171Z,1012.29
2017-07-24T09:35:16.998Z,1012.23
2017-07-24T09:36:18.880Z,1012.22
2017-07-24T09:37:20.784Z,1012.19
2017-07-24T09:38:22.696Z,1012.18
2017-07-24T09:39:36.849Z,1012.22
2017-07-24T09:40:38.730Z,1012.22
2017-07-24T09:41:40.607Z,1012.21
2017-07-24T09:42:42.485Z,1012.17
2017-07-24T09:43:44.332Z,1012.15
2017-07-24T09:44:46.149Z,1012.12
2017-07-24T09:45:48.036Z,1012.08
2017-07-24T09:46:49.943Z,1012.05
2017-07-24T09:47:51.845Z,1011.99
2017-07-24T09:49:06.007Z,1011.94
2017-07-24T09:50:07.904Z,1012.00
2017-07-24T09:51:09.784Z,1011.93
2017-07-24T09:52:11.666Z,1011.91
2017-07-24T09:53:13.516Z,1011.86
2017-07-24T09:54:15.358Z,1011.88
2017-07-24T09:55:17.242Z,1011.86
2017-07-24T09:56:19.118Z,1011.85
2017-07-24T09:57:21.019Z,1011.84
2017-07-24T09:58:35.207Z,1011.84
2017-07-24T09:59:37.105Z,1011.83
2017-07-24T10:00:39.015Z,1011.80
2017-07-24T10:01:40.889Z,1011.76
2017-07-24T10:02:42.708Z,1011.82
2017-07-24T10:03:44.532Z,1011.85
2017-07-24T10:04:46.424Z,1011.87
2017-07-24T10:05:48.307Z,1011.83
2017-07-24T10:06:50.188Z,1011.86
2017-07-24T10:08:04.349Z,1011.82
2017-07-24T10:09:06.253Z,1011.84
2017-07-24T10:10:08.152Z,1011.85
2017-07-24T10:11:10.031Z,1011.83
2017-07-24T10:12:11.857Z,1011.84
2017-07-24T10:13:13.672Z,1011.78
2017-07-24T10:14:15.553Z,1011.76
2017-07-24T10:15:17.436Z,1011.73
2017-07-24T10:16:19.320Z,1011.69
2017-07-24T10:17:33.500Z,1011.68
2017-07-24T10:18:35.384Z,1011.65
2017-07-24T10:19:37.287Z,1011.64
2017-07-24T10:20:39.192Z,1011.62
2017-07-24T10:21:41.008Z,1011.62
2017-07-24T10:22:42.833Z,1011.59
2017-07-24T10:23:44.717Z,1011.64
2017-07-24T10:24:46.617Z,1011.63
2017-07-24T10:25:48.525Z,1011.60
2017-07-24T10:27:02.686Z,1011.57
2017-07-24T10:28:04.567Z,1011.57
2017-07-24T10:29:06.442Z,1011.56
2017-07-24T10:30:08.324Z,1011.60
2017-07-24T10:31:10.164Z,1011.60
2017-07-24T10:32:11.988Z,1011.59
2017-07-24T10:33:13.875Z,1011.58
2017-07-24T10:34:15.773Z,1011.55
2017-07-24T10:35:17.653Z,1011.56
2017-07-24T10:36:31.811Z,1011.55
2017-07-24T10:37:33.690Z,1011.53
2017-07-24T10:38:35.575Z,1011.52
2017-07-24T10:39:37.452Z,1011.51
2017-07-24T10:40:39.272Z,1011.51
2017-07-24T10:41:41.102Z,1011.46
2017-07-24T10:42:43.001Z,1011.42
2017-07-24T10:43:44.904Z,1011.41
2017-07-24T10:44:46.789Z,1011.43
2017-07-24T10:46:00.973Z,1011.41
2017-07-24T10:47:02.876Z,1011.40
2017-07-24T10:48:04.771Z,1011.36
2017-07-24T10:49:06.649Z,1011.33
2017-07-24T10:50:08.471Z,1011.35
2017-07-24T10:51:10.303Z,1011.30
2017-07-24T10:52:12.214Z,1011.33
2017-07-24T10:53:14.115Z,1011.33
2017-07-24T10:54:16.002Z,1011.31
2017-07-24T10:55:30.155Z,1011.32
2017-07-24T10:56:32.064Z,1011.33
2017-07-24T10:57:33.969Z,1011.34
2017-07-24T10:58:35.857Z,1011.35
2017-07-24T10:59:37.701Z,1011.31
2017-07-24T11:00:39.525Z,1011.33
2017-07-24T11:01:41.410Z,1011.35
2017-07-24T11:02:43.314Z,1011.32
2017-07-24T11:03:45.198Z,1011.36
2017-07-24T11:04:59.408Z,1011.36
2017-07-24T11:06:01.309Z,1011.33
2017-07-24T11:07:03.215Z,1011.35
2017-07-24T11:08:05.131Z,1011.35
2017-07-24T11:09:06.972Z,1011.32
2017-07-24T11:10:08.788Z,1011.31
2017-07-24T11:11:10.666Z,1011.31
2017-07-24T11:12:12.554Z,1011.29
2017-07-24T11:13:14.431Z,1011.30
2017-07-24T11:14:28.621Z,1011.28
2017-07-24T11:15:30.533Z,1011.23
2017-07-24T11:16:32.445Z,1011.25
2017-07-24T11:17:34.360Z,1011.27
2017-07-24T11:18:36.198Z,1011.28
2017-07-24T11:19:38.042Z,1011.28
2017-07-24T11:20:39.933Z,1011.31
2017-07-24T11:21:42.077Z,1011.31
2017-07-24T11:22:44.107Z,1011.31
2017-07-24T11:23:58.284Z,1011.24
2017-07-24T11:25:00.169Z,1011.28
2017-07-24T11:26:02.074Z,1011.27
2017-07-24T11:27:03.950Z,1011.25
2017-07-24T11:28:05.782Z,1011.20
2017-07-24T11:29:07.630Z,1011.20
2017-07-24T11:30:09.535Z,1011.22
2017-07-24T11:31:11.467Z,1011.20
2017-07-24T11:32:13.326Z,1011.23
2017-07-24T11:33:27.520Z,1011.18
2017-07-24T11:34:29.422Z,1011.20
2017-07-24T11:35:31.356Z,1011.13
2017-07-24T11:36:33.242Z,1011.11
2017-07-24T11:37:35.084Z,1011.07
2017-07-24T11:38:36.926Z,1011.05
2017-07-24T11:39:38.812Z,1011.04
2017-07-24T11:40:40.720Z,1011.01
2017-07-24T11:41:42.625Z,1010.98
2017-07-24T11:42:56.789Z,1010.96
2017-07-24T11:43:58.646Z,1010.94
2017-07-24T11:45:00.578Z,1010.95
2017-07-24T11:46:02.477Z,1010.92
2017-07-24T11:47:04.312Z,1010.87
2017-07-24T11:48:06.160Z,1010.84
2017-07-24T11:49:08.071Z,1010.75
2017-07-24T11:50:09.970Z,1010.71
2017-07-24T11:51:11.859Z,1010.68
2017-07-24T11:52:26.020Z,1010.67
2017-07-24T11:53:27.934Z,1010.68
2017-07-24T11:54:29.833Z,1010.67
2017-07-24T11:55:31.746Z,1010.62
2017-07-24T11:56:33.600Z,1010.64
2017-07-24T11:57:35.451Z,1010.64
2017-07-24T11:58:37.371Z,1010.63
2017-07-24T11:59:39.275Z,1010.63
2017-07-24T12:00:41.174Z,1010.58
2017-07-24T12:01:55.351Z,1010.56
2017-07-24T12:02:57.237Z,1010.55
2017-07-24T12:03:59.146Z,1010.54
2017-07-24T12:05:01.047Z,1010.54
2017-07-24T12:06:02.910Z,1010.55
2017-07-24T12:07:04.719Z,1010.57
2017-07-24T12:08:06.622Z,1010.58
2017-07-24T12:09:08.531Z,1010.57
2017-07-24T12:10:10.411Z,1010.56
2017-07-24T12:11:24.653Z,1010.51
2017-07-24T12:12:26.550Z,1010.50
2017-07-24T12:13:28.458Z,1010.49
2017-07-24T12:14:30.373Z,1010.49
2017-07-24T12:15:32.217Z,1010.45
2017-07-24T12:16:34.069Z,1010.44
2017-07-24T12:17:35.945Z,1010.43
2017-07-24T12:18:37.849Z,1010.41
2017-07-24T12:19:39.732Z,1010.43
2017-07-24T12:20:53.965Z,1010.37
2017-07-24T12:21:55.851Z,1010.36
2017-07-24T12:22:57.757Z,1010.30
2017-07-24T12:23:59.637Z,1010.27
2017-07-24T12:25:01.490Z,1010.27
2017-07-24T12:26:03.336Z,1010.22
2017-07-24T12:27:05.242Z,1010.27
2017-07-24T12:28:07.133Z,1010.27
2017-07-24T12:29:09.006Z,1010.24
2017-07-24T12:30:23.168Z,1010.27
2017-07-24T12:31:25.051Z,1010.29
2017-07-24T12:32:26.930Z,1010.29
2017-07-24T12:33:28.814Z,1010.27
2017-07-24T12:34:30.642Z,1010.27
2017-07-24T12:35:32.485Z,1010.28
2017-07-24T12:36:34.391Z,1010.32
2017-07-24T12:37:36.301Z,1010.27
2017-07-24T12:38:38.180Z,1010.26
2017-07-24T12:39:52.377Z,1010.24
2017-07-24T12:40:54.346Z,1010.19
2017-07-24T12:41:56.306Z,1010.23
2017-07-24T12:42:58.264Z,1010.18
2017-07-24T12:44:00.093Z,1010.19
2017-07-24T12:45:01.912Z,1010.18